Terminal Aerodrome Forecast
Issued by NWS Corpus Christi, TX

Current Version | Previous Version | Text Only | Print | Product List | Glossary Off
Versions: 1 2 3 4 5 6 7 8 9 10 11 12

000
FTUS44 KCRP 011100
TAFCRP
TAF
KCRP 011140Z 0112/0212 VRB04KT P6SM SCT020 BKN100
      TEMPO 0112/0114 BKN015 OVC100
     FM011400 16005KT P6SM VCSH BKN035 OVC100
      TEMPO 0114/0116 BKN030
     FM012000 14010KT P6SM VCTS SCT040CB BKN090
     FM020200 12007KT P6SM FEW050
     FM020900 VRB05KT P6SM VCSH SCT030=

USA.gov is the U.S. government's official web portal to all federal, state and local government web resources and services.